createdAt,value
2019-03-01T00:01:19.876Z,5.27
2019-03-01T00:03:56.714Z,7.63
2019-03-01T00:06:47.701Z,5.87
2019-03-01T00:10:14.949Z,6.97
2019-03-01T00:14:10.193Z,8.73
2019-03-01T00:17:12.163Z,4.27
2019-03-01T00:20:58.675Z,9.28
2019-03-01T00:24:17.962Z,7.33
2019-03-01T00:27:43.182Z,5.43
2019-03-01T00:31:06.319Z,6.97
2019-03-01T00:34:51.156Z,5.57
2019-03-01T00:38:10.877Z,8.40
2019-03-01T00:41:34.293Z,4.07
2019-03-01T00:44:31.940Z,6.30
2019-03-01T00:47:02.539Z,6.30
2019-03-01T00:49:33.305Z,6.47
2019-03-01T00:52:04.022Z,6.60
2019-03-01T00:54:34.627Z,5.47
2019-03-01T00:57:05.783Z,3.73
2019-03-01T00:59:36.390Z,7.58
2019-03-01T01:02:07.167Z,4.97
2019-03-01T01:04:38.038Z,6.65
2019-03-01T01:07:08.662Z,6.93
2019-03-01T01:09:39.532Z,7.17
2019-03-01T01:12:10.497Z,5.63
2019-03-01T01:14:41.336Z,3.40
2019-03-01T01:17:12.204Z,3.47
2019-03-01T01:19:43.045Z,4.37
2019-03-01T01:22:13.660Z,4.10
2019-03-01T01:24:44.411Z,5.22
2019-03-01T01:27:15.184Z,5.20
2019-03-01T01:29:46.346Z,5.67
2019-03-01T01:32:17.236Z,4.87
2019-03-01T01:34:47.824Z,4.33
2019-03-01T01:37:18.450Z,6.43
2019-03-01T01:39:49.098Z,5.97
2019-03-01T01:42:19.640Z,4.07
2019-03-01T01:44:50.240Z,3.83
2019-03-01T01:47:20.854Z,5.63
2019-03-01T01:49:51.429Z,7.13
2019-03-01T01:52:22.238Z,5.37
2019-03-01T01:54:53.121Z,2.50
2019-03-01T01:57:23.750Z,7.03
2019-03-01T01:59:54.312Z,5.60
2019-03-01T02:02:24.901Z,4.90
2019-03-01T02:04:55.473Z,5.20
2019-03-01T02:07:26.272Z,4.37
2019-03-01T02:09:57.097Z,7.58
2019-03-01T02:12:28.623Z,4.72
2019-03-01T02:14:59.254Z,9.33
2019-03-01T02:17:30.463Z,5.65
2019-03-01T02:20:01.307Z,3.70
2019-03-01T02:22:32.169Z,5.28
2019-03-01T02:25:02.821Z,7.03
2019-03-01T02:27:33.657Z,3.87
2019-03-01T02:30:08.451Z,4.60
2019-03-01T02:32:51.366Z,5.97
2019-03-01T02:35:24.764Z,5.28
2019-03-01T02:37:55.315Z,4.03
2019-03-01T02:40:26.151Z,4.17
2019-03-01T02:42:56.751Z,2.87
2019-03-01T02:45:28.633Z,5.75
2019-03-01T02:47:59.300Z,3.30
2019-03-01T02:50:30.446Z,3.92
2019-03-01T02:53:01.284Z,3.63
2019-03-01T02:55:31.911Z,4.40
2019-03-01T02:58:02.458Z,5.13
2019-03-01T03:00:33.475Z,4.53
2019-03-01T03:03:04.250Z,4.43
2019-03-01T03:05:38.690Z,11.10
2019-03-01T03:08:10.095Z,6.40
2019-03-01T03:10:40.691Z,5.70
2019-03-01T03:13:11.770Z,4.37
2019-03-01T03:15:45.325Z,9.28
2019-03-01T03:18:16.185Z,2.73
2019-03-01T03:20:46.825Z,2.65
2019-03-01T03:23:17.447Z,6.13
2019-03-01T03:25:48.024Z,4.73
2019-03-01T03:28:18.593Z,4.67
2019-03-01T03:30:49.312Z,5.53
2019-03-01T03:33:19.884Z,6.33
2019-03-01T03:35:50.526Z,3.37
2019-03-01T03:38:21.352Z,3.30
2019-03-01T03:40:51.958Z,9.40
2019-03-01T03:43:22.897Z,4.57
2019-03-01T03:45:53.580Z,3.13
2019-03-01T03:48:24.395Z,5.33
2019-03-01T03:50:55.032Z,4.80
2019-03-01T03:53:25.592Z,5.07
2019-03-01T03:55:56.403Z,3.87
2019-03-01T03:58:28.887Z,5.26
2019-03-01T04:00:59.448Z,4.97
2019-03-01T04:03:30.745Z,5.00
2019-03-01T04:06:01.358Z,4.43
2019-03-01T04:08:32.335Z,3.53
2019-03-01T04:11:02.929Z,4.57
2019-03-01T04:13:33.493Z,3.83
2019-03-01T04:16:06.588Z,8.03
2019-03-01T04:18:37.484Z,4.83
2019-03-01T04:21:08.356Z,2.97
2019-03-01T04:23:38.921Z,3.98
2019-03-01T04:26:09.564Z,4.27
2019-03-01T04:28:40.393Z,3.40
2019-03-01T04:31:10.976Z,3.03
2019-03-01T04:33:41.882Z,2.13
2019-03-01T04:36:12.679Z,4.73
2019-03-01T04:38:43.229Z,4.80
2019-03-01T04:41:13.840Z,3.50
2019-03-01T04:43:44.584Z,4.23
2019-03-01T04:46:15.477Z,4.53
2019-03-01T04:48:46.087Z,3.70
2019-03-01T04:51:16.654Z,4.07
2019-03-01T04:53:47.523Z,8.40
2019-03-01T04:56:18.133Z,3.67
2019-03-01T04:58:48.734Z,2.27
2019-03-01T05:01:19.579Z,6.83
2019-03-01T05:03:50.511Z,4.73
2019-03-01T05:06:21.164Z,3.87
2019-03-01T05:08:51.775Z,10.93
2019-03-01T05:11:22.638Z,4.55
2019-03-01T05:13:53.255Z,3.60
2019-03-01T05:16:23.846Z,3.87
2019-03-01T05:18:54.510Z,5.77
2019-03-01T05:21:25.134Z,5.77
2019-03-01T05:23:55.694Z,4.03
2019-03-01T05:26:26.595Z,2.58
2019-03-01T05:28:57.154Z,4.93
2019-03-01T05:31:29.057Z,4.10
2019-03-01T05:33:59.653Z,4.83
2019-03-01T05:36:30.785Z,4.60
2019-03-01T05:39:01.691Z,4.87
2019-03-01T05:41:32.791Z,4.85
2019-03-01T05:44:03.687Z,4.70
2019-03-01T05:46:34.591Z,8.95
2019-03-01T05:49:05.191Z,5.43
2019-03-01T05:51:36.076Z,5.93
2019-03-01T05:54:06.755Z,4.83
2019-03-01T05:56:37.357Z,6.65
2019-03-01T05:59:23.736Z,4.73
2019-03-01T06:02:45.138Z,6.25
2019-03-01T06:05:32.683Z,4.03
2019-03-01T06:08:54.575Z,4.23
2019-03-01T06:12:39.341Z,5.03
2019-03-01T06:15:46.209Z,3.40
2019-03-01T06:19:08.191Z,3.60
2019-03-01T06:22:59.184Z,2.77
2019-03-01T06:26:23.137Z,3.23
2019-03-01T06:29:43.690Z,2.23
2019-03-01T06:33:00.708Z,5.43
2019-03-01T06:36:05.925Z,2.22
2019-03-01T06:40:22.505Z,2.77
2019-03-01T06:44:29.991Z,2.60
2019-03-01T06:47:44.682Z,4.53
2019-03-01T06:50:17.064Z,2.30
2019-03-01T06:52:47.824Z,2.93
2019-03-01T06:55:48.241Z,3.67
2019-03-01T06:58:52.452Z,2.30
2019-03-01T07:01:36.289Z,1.73
2019-03-01T07:04:17.746Z,1.40
2019-03-01T07:06:48.371Z,1.80
2019-03-01T07:09:19.029Z,2.87
2019-03-01T07:11:49.712Z,2.23
2019-03-01T07:14:20.323Z,2.40
2019-03-01T07:16:50.905Z,1.83
2019-03-01T07:19:21.774Z,3.90
2019-03-01T07:21:52.477Z,1.97
2019-03-01T07:24:23.124Z,1.47
2019-03-01T07:26:53.729Z,1.73
2019-03-01T07:29:24.366Z,3.43
2019-03-01T07:31:54.943Z,3.03
2019-03-01T07:34:25.927Z,3.43
2019-03-01T07:36:56.841Z,4.53
2019-03-01T07:39:29.224Z,1.88
2019-03-01T07:41:59.839Z,5.00
2019-03-01T07:44:31.087Z,2.12
2019-03-01T07:47:01.896Z,5.23
2019-03-01T07:49:32.782Z,3.65
2019-03-01T07:52:04.987Z,2.37
2019-03-01T07:54:35.983Z,1.30
2019-03-01T07:57:06.905Z,1.50
2019-03-01T07:59:39.441Z,2.52
2019-03-01T08:02:10.262Z,3.53
2019-03-01T08:04:40.905Z,1.13
2019-03-01T08:07:11.802Z,6.17
2019-03-01T08:09:44.872Z,3.35
2019-03-01T08:12:15.312Z,2.33
2019-03-01T08:14:46.209Z,2.03
2019-03-01T08:17:17.063Z,2.87
2019-03-01T08:19:47.941Z,1.77
2019-03-01T08:22:20.840Z,1.60
2019-03-01T08:24:51.071Z,1.97
2019-03-01T08:27:22.037Z,2.73
2019-03-01T08:29:52.835Z,2.53
2019-03-01T08:32:23.524Z,3.50
2019-03-01T08:34:54.704Z,4.33
2019-03-01T08:37:25.428Z,2.60
2019-03-01T08:39:56.023Z,1.97
2019-03-01T08:42:26.948Z,1.45
2019-03-01T08:44:58.176Z,2.17
2019-03-01T08:47:30.280Z,1.30
2019-03-01T08:50:01.045Z,2.47
2019-03-01T08:52:31.921Z,2.07
2019-03-01T08:55:04.521Z,2.27
2019-03-01T08:57:44.315Z,1.57
2019-03-01T09:00:17.487Z,2.47
2019-03-01T09:02:48.191Z,1.33
2019-03-01T09:05:19.080Z,1.87
2019-03-01T09:07:50.002Z,2.83
2019-03-01T09:10:20.925Z,2.03
2019-03-01T09:12:51.473Z,1.33
2019-03-01T09:15:22.120Z,1.67
2019-03-01T09:17:52.948Z,2.20
2019-03-01T09:20:23.595Z,1.60
2019-03-01T09:22:54.298Z,2.00
2019-03-01T09:25:24.947Z,0.87
2019-03-01T09:27:57.521Z,2.77
2019-03-01T09:30:29.339Z,4.83
2019-03-01T09:32:59.996Z,2.17
2019-03-01T09:35:50.630Z,1.35
2019-03-01T09:38:21.245Z,1.10
2019-03-01T09:40:52.124Z,2.50
2019-03-01T09:43:24.714Z,2.33
2019-03-01T09:45:55.302Z,1.60
2019-03-01T09:48:25.999Z,2.33
2019-03-01T09:50:56.619Z,2.37
2019-03-01T09:53:30.524Z,0.83
2019-03-01T09:56:01.227Z,1.83
2019-03-01T09:58:32.115Z,1.23
2019-03-01T10:01:13.408Z,1.63
2019-03-01T10:03:44.619Z,1.47
2019-03-01T10:06:15.229Z,0.80
2019-03-01T10:08:46.382Z,0.80
2019-03-01T10:11:17.296Z,1.30
2019-03-01T10:13:48.157Z,1.40
2019-03-01T10:16:19.078Z,1.22
2019-03-01T10:18:49.661Z,1.10
2019-03-01T10:21:20.541Z,7.30
2019-03-01T10:23:51.145Z,1.10
2019-03-01T10:26:21.833Z,1.40
2019-03-01T10:28:52.431Z,1.40
2019-03-01T10:31:23.053Z,1.50
2019-03-01T10:33:53.653Z,1.20
2019-03-01T10:36:24.271Z,1.40
2019-03-01T10:38:55.209Z,1.20
2019-03-01T10:41:25.826Z,3.00
2019-03-01T10:43:56.457Z,1.30
2019-03-01T10:46:27.167Z,2.20
2019-03-01T10:48:58.081Z,1.63
2019-03-01T10:51:29.535Z,1.60
2019-03-01T10:54:00.186Z,1.97
2019-03-01T10:56:31.356Z,2.37
2019-03-01T10:59:02.317Z,2.10
2019-03-01T11:01:33.245Z,3.77
2019-03-01T11:04:04.171Z,5.77
2019-03-01T11:06:35.111Z,4.80
2019-03-01T11:09:07.845Z,7.53
2019-03-01T11:11:38.528Z,4.53
2019-03-01T11:14:09.394Z,5.07
2019-03-01T11:16:40.297Z,5.40
2019-03-01T11:19:11.411Z,5.57
2019-03-01T11:21:42.208Z,2.53
2019-03-01T11:24:13.238Z,2.97
2019-03-01T11:26:43.877Z,4.55
2019-03-01T11:29:14.558Z,3.10
2019-03-01T11:31:47.593Z,2.30
2019-03-01T11:34:18.240Z,2.40
2019-03-01T11:36:49.323Z,2.63
2019-03-01T11:39:20.563Z,2.20
2019-03-01T11:41:51.402Z,2.17
2019-03-01T11:44:22.271Z,5.00
2019-03-01T11:46:53.149Z,2.43
2019-03-01T11:49:23.866Z,2.30
2019-03-01T11:51:54.515Z,2.30
2019-03-01T11:54:25.627Z,2.67
2019-03-01T11:56:56.341Z,2.87
2019-03-01T11:59:27.120Z,4.17
2019-03-01T12:01:58.461Z,3.57
2019-03-01T12:04:30.022Z,2.83
2019-03-01T12:07:08.598Z,3.27
2019-03-01T12:09:39.581Z,2.22
2019-03-01T12:12:10.297Z,3.50
2019-03-01T12:14:41.491Z,5.08
2019-03-01T12:17:19.200Z,3.25
2019-03-01T12:19:49.914Z,3.73
2019-03-01T12:22:20.532Z,4.40
2019-03-01T12:24:51.399Z,5.17
2019-03-01T12:27:22.278Z,2.97
2019-03-01T12:29:52.986Z,3.33
2019-03-01T12:32:23.770Z,4.80
2019-03-01T12:34:54.539Z,3.87
2019-03-01T12:37:25.443Z,3.77
2019-03-01T12:39:56.383Z,5.07
2019-03-01T12:42:27.395Z,4.13
2019-03-01T12:44:58.343Z,3.90
2019-03-01T12:47:29.711Z,3.50
2019-03-01T12:50:00.456Z,3.20
2019-03-01T12:52:31.419Z,2.70
2019-03-01T12:55:02.374Z,3.40
2019-03-01T12:57:33.313Z,5.03
2019-03-01T13:00:04.035Z,5.20
2019-03-01T13:02:35.057Z,4.20
2019-03-01T13:05:06.031Z,4.23
2019-03-01T13:07:36.758Z,3.90
2019-03-01T13:10:10.909Z,5.00
2019-03-01T13:12:41.545Z,5.00
2019-03-01T13:15:13.744Z,4.37
2019-03-01T13:17:45.686Z,4.03
2019-03-01T13:20:17.614Z,3.60
2019-03-01T13:22:48.535Z,3.77
2019-03-01T13:25:19.578Z,3.80
2019-03-01T13:27:52.614Z,3.83
2019-03-01T13:30:23.675Z,4.80
2019-03-01T13:32:55.094Z,4.70
2019-03-01T13:35:27.454Z,3.90
2019-03-01T13:37:58.456Z,3.70
2019-03-01T13:40:30.150Z,3.80
2019-03-01T13:43:00.822Z,4.47
2019-03-01T13:45:31.648Z,5.13
2019-03-01T13:48:03.320Z,4.17
2019-03-01T13:50:34.294Z,3.75
2019-03-01T13:53:06.528Z,3.40
2019-03-01T13:55:37.641Z,3.30
2019-03-01T13:58:08.547Z,4.57
2019-03-01T14:00:39.801Z,4.90
2019-03-01T14:03:10.574Z,5.17
2019-03-01T14:05:41.921Z,3.58
2019-03-01T14:08:12.666Z,4.30
2019-03-01T14:10:43.625Z,4.53
2019-03-01T14:13:15.717Z,4.07
2019-03-01T14:15:46.810Z,3.43
2019-03-01T14:18:17.557Z,4.00
2019-03-01T14:20:48.217Z,4.58
2019-03-01T14:23:21.231Z,3.80
2019-03-01T14:25:51.722Z,4.17
2019-03-01T14:28:22.606Z,4.50
2019-03-01T14:30:53.567Z,4.23
2019-03-01T14:33:29.908Z,4.92
2019-03-01T14:36:02.695Z,4.10
2019-03-01T14:38:34.978Z,6.83
2019-03-01T14:41:05.784Z,5.00
2019-03-01T14:43:37.168Z,4.97
2019-03-01T14:46:07.816Z,3.70
2019-03-01T14:48:38.739Z,4.73
2019-03-01T14:51:10.839Z,4.27
2019-03-01T14:53:42.074Z,5.70
2019-03-01T14:56:21.623Z,5.27
2019-03-01T14:59:11.955Z,4.80
2019-03-01T15:02:25.692Z,5.87
2019-03-01T15:04:56.475Z,6.57
2019-03-01T15:07:27.959Z,7.47
2019-03-01T15:09:59.791Z,5.60
2019-03-01T15:12:30.746Z,4.73
2019-03-01T15:15:01.731Z,9.40
2019-03-01T15:17:32.366Z,7.47
2019-03-01T15:20:03.029Z,5.63
2019-03-01T15:22:33.931Z,9.17
2019-03-01T15:25:08.222Z,4.53
2019-03-01T15:27:40.205Z,5.40
2019-03-01T15:30:13.344Z,6.90
2019-03-01T15:32:44.335Z,5.85
2019-03-01T15:35:15.072Z,3.90
2019-03-01T15:37:45.848Z,4.73
2019-03-01T15:40:16.819Z,5.43
2019-03-01T15:42:47.977Z,5.80
2019-03-01T15:45:18.724Z,7.97
2019-03-01T15:47:50.504Z,6.67
2019-03-01T15:50:23.693Z,4.10
2019-03-01T15:52:53.819Z,6.07
2019-03-01T15:55:24.795Z,4.00
2019-03-01T15:57:56.475Z,5.90
2019-03-01T16:00:30.439Z,5.00
2019-03-01T16:03:01.237Z,5.57
2019-03-01T16:05:34.179Z,6.20
2019-03-01T16:08:05.494Z,5.80
2019-03-01T16:10:37.354Z,4.80
2019-03-01T16:13:11.749Z,6.40
2019-03-01T16:15:40.861Z,5.40
2019-03-01T16:18:11.764Z,4.60
2019-03-01T16:20:42.495Z,5.95
2019-03-01T16:23:13.192Z,6.47
2019-03-01T16:25:43.838Z,7.80
2019-03-01T16:28:14.848Z,5.90
2019-03-01T16:30:46.062Z,5.83
2019-03-01T16:33:16.930Z,6.83
2019-03-01T16:35:48.418Z,8.30
2019-03-01T16:38:20.889Z,7.63
2019-03-01T16:40:51.829Z,9.73
2019-03-01T16:43:25.426Z,8.53
2019-03-01T16:45:56.400Z,8.90
2019-03-01T16:48:27.263Z,7.73
2019-03-01T16:50:57.963Z,8.20
2019-03-01T16:53:30.256Z,9.48
2019-03-01T16:56:03.991Z,8.37
2019-03-01T16:58:35.051Z,9.00
2019-03-01T17:01:06.083Z,8.20
2019-03-01T17:03:36.996Z,9.30
2019-03-01T17:06:10.527Z,9.65
2019-03-01T17:08:40.492Z,10.23
2019-03-01T17:11:11.199Z,8.83
2019-03-01T17:13:42.203Z,10.85
2019-03-01T17:16:13.143Z,9.83
2019-03-01T17:18:44.610Z,10.55
2019-03-01T17:21:16.678Z,10.03
2019-03-01T17:23:49.139Z,12.27
2019-03-01T17:26:20.006Z,10.53
2019-03-01T17:28:51.108Z,11.07
2019-03-01T17:31:23.204Z,9.93
2019-03-01T17:33:54.381Z,11.30
2019-03-01T17:36:25.013Z,10.83
2019-03-01T17:38:56.059Z,10.20
2019-03-01T17:41:26.978Z,10.17
2019-03-01T17:43:57.908Z,11.73
2019-03-01T17:46:32.959Z,11.26
2019-03-01T17:49:02.930Z,12.27
2019-03-01T17:51:33.645Z,12.83
2019-03-01T17:54:04.325Z,15.13
2019-03-01T17:56:36.622Z,13.60
2019-03-01T17:59:11.479Z,13.27
2019-03-01T18:01:40.369Z,13.25
2019-03-01T18:04:11.129Z,17.80
2019-03-01T18:06:42.299Z,17.55
2019-03-01T18:09:15.915Z,16.67
2019-03-01T18:11:45.593Z,18.37
2019-03-01T18:14:16.306Z,15.47
2019-03-01T18:16:47.261Z,18.67
2019-03-01T18:19:18.053Z,23.10
2019-03-01T18:21:50.046Z,16.97
2019-03-01T18:24:21.437Z,19.87
2019-03-01T18:26:52.194Z,20.17
2019-03-01T18:29:23.246Z,20.10
2019-03-01T18:31:54.067Z,20.20
2019-03-01T18:34:25.125Z,22.57
2019-03-01T18:36:56.117Z,19.67
2019-03-01T18:39:27.008Z,18.30
2019-03-01T18:41:59.362Z,19.17
2019-03-01T18:44:30.606Z,18.30
2019-03-01T18:47:01.798Z,21.37
2019-03-01T18:49:32.704Z,22.50
2019-03-01T18:52:03.631Z,22.93
2019-03-01T18:54:35.902Z,18.80
2019-03-01T18:57:07.598Z,23.62
2019-03-01T18:59:40.883Z,22.67
2019-03-01T19:02:14.221Z,24.10
2019-03-01T19:04:48.265Z,29.73
2019-03-01T19:07:24.353Z,28.97
2019-03-01T19:09:54.415Z,33.20
2019-03-01T19:12:25.356Z,35.23
2019-03-01T19:14:58.369Z,30.70
2019-03-01T19:17:30.658Z,40.92
2019-03-01T19:20:01.932Z,40.63
2019-03-01T19:22:34.419Z,41.20
2019-03-01T19:25:05.306Z,44.67
2019-03-01T19:27:36.523Z,33.23
2019-03-01T19:30:10.547Z,44.57
2019-03-01T19:32:41.725Z,43.03
2019-03-01T19:35:12.637Z,38.80
2019-03-01T19:37:45.871Z,44.17
2019-03-01T19:40:18.111Z,42.83
2019-03-01T19:42:52.990Z,55.80
2019-03-01T19:45:23.661Z,50.53
2019-03-01T19:47:54.349Z,49.20
2019-03-01T19:50:25.995Z,51.40
2019-03-01T19:52:57.016Z,48.73
2019-03-01T19:55:27.714Z,54.77
2019-03-01T19:57:58.447Z,57.97
2019-03-01T20:00:30.505Z,51.55
2019-03-01T20:03:01.490Z,56.07
2019-03-01T20:05:33.158Z,61.27
2019-03-01T20:08:04.410Z,60.47
2019-03-01T20:10:36.880Z,60.83
2019-03-01T20:13:07.901Z,54.87
2019-03-01T20:15:38.646Z,57.88
2019-03-01T20:18:10.766Z,61.67
2019-03-01T20:20:41.836Z,70.37
2019-03-01T20:23:12.558Z,60.30
2019-03-01T20:25:43.544Z,54.97
2019-03-01T20:28:15.314Z,63.90
2019-03-01T20:30:46.736Z,64.17
2019-03-01T20:33:17.411Z,60.47
2019-03-01T20:35:48.250Z,75.15
2019-03-01T20:38:19.396Z,72.53
2019-03-01T20:40:50.300Z,70.57
2019-03-01T20:43:21.207Z,62.20
2019-03-01T20:45:51.909Z,73.27
2019-03-01T20:48:25.610Z,64.30
2019-03-01T20:50:55.356Z,76.27
2019-03-01T20:53:26.386Z,77.97
2019-03-01T20:55:57.107Z,73.50
2019-03-01T20:58:27.804Z,67.47
2019-03-01T21:01:02.083Z,66.50
2019-03-01T21:03:34.026Z,65.87
2019-03-01T21:06:05.578Z,68.87
2019-03-01T21:08:36.587Z,73.70
2019-03-01T21:11:07.881Z,68.73
2019-03-01T21:13:38.618Z,69.83
2019-03-01T21:16:09.369Z,72.83
2019-03-01T21:18:41.011Z,68.72
2019-03-01T21:21:11.740Z,65.67
2019-03-01T21:23:42.490Z,67.23
2019-03-01T21:26:15.655Z,74.77
2019-03-01T21:28:46.435Z,70.55
2019-03-01T21:31:17.504Z,60.77
2019-03-01T21:33:48.663Z,63.48
2019-03-01T21:36:22.853Z,74.20
2019-03-01T21:38:52.380Z,64.03
2019-03-01T21:41:23.518Z,65.10
2019-03-01T21:43:54.545Z,57.43
2019-03-01T21:46:25.634Z,71.90
2019-03-01T21:48:56.836Z,63.93
2019-03-01T21:51:30.171Z,62.63
2019-03-01T21:54:00.820Z,63.00
2019-03-01T21:56:32.141Z,59.50
2019-03-01T21:59:02.881Z,61.23
2019-03-01T22:01:33.846Z,54.73
2019-03-01T22:04:04.528Z,63.33
2019-03-01T22:06:35.232Z,62.75
2019-03-01T22:09:06.907Z,59.80
2019-03-01T22:11:37.637Z,57.07
2019-03-01T22:14:10.859Z,57.07
2019-03-01T22:16:40.943Z,55.45
2019-03-01T22:19:11.629Z,56.70
2019-03-01T22:21:42.855Z,49.95
2019-03-01T22:24:13.709Z,49.43
2019-03-01T22:26:46.675Z,50.43
2019-03-01T22:29:16.962Z,47.03
2019-03-01T22:31:48.288Z,47.80
2019-03-01T22:34:18.963Z,47.43
2019-03-01T22:36:52.887Z,46.97
2019-03-01T22:39:22.173Z,57.67
2019-03-01T22:41:52.792Z,52.23
2019-03-01T22:44:23.636Z,41.73
2019-03-01T22:46:54.464Z,37.57
2019-03-01T22:49:28.654Z,46.40
2019-03-01T22:51:57.857Z,43.77
2019-03-01T22:54:28.749Z,49.43
2019-03-01T22:56:59.702Z,41.33
2019-03-01T22:59:34.163Z,42.67
2019-03-01T23:02:08.214Z,39.30
2019-03-01T23:04:39.782Z,47.40
2019-03-01T23:07:10.650Z,46.07
2019-03-01T23:09:42.622Z,45.67
2019-03-01T23:12:14.870Z,45.07
2019-03-01T23:14:45.692Z,44.73
2019-03-01T23:17:16.674Z,44.87
2019-03-01T23:19:47.702Z,52.10
2019-03-01T23:22:19.925Z,46.17
2019-03-01T23:24:50.655Z,40.23
2019-03-01T23:27:21.699Z,40.58
2019-03-01T23:29:54.296Z,46.27
2019-03-01T23:32:25.055Z,53.77
2019-03-01T23:34:55.744Z,47.40
2019-03-01T23:37:26.601Z,48.60
2019-03-01T23:40:00.988Z,40.45
2019-03-01T23:42:30.964Z,47.85
2019-03-01T23:45:01.719Z,47.10
2019-03-01T23:47:34.661Z,42.23
2019-03-01T23:50:05.142Z,48.37
2019-03-01T23:52:36.035Z,45.67
2019-03-01T23:55:06.701Z,49.10
2019-03-01T23:57:38.044Z,49.70
